sensor_id;sensor_type;location;lat;lon;timestamp;P1;durP1;ratioP1;P2;durP2;ratioP2
35743;SDS011;21867;52.012;4.324;2023-04-24T00:07:34;4.63;;;2.00;;
35743;SDS011;21867;52.012;4.324;2023-04-24T00:10:01;1.83;;;1.73;;
35743;SDS011;21867;52.012;4.324;2023-04-24T00:12:30;7.20;;;2.43;;
35743;SDS011;21867;52.012;4.324;2023-04-24T00:14:57;2.23;;;1.70;;
35743;SDS011;21867;52.012;4.324;2023-04-24T00:17:25;4.83;;;1.97;;
35743;SDS011;21867;52.012;4.324;2023-04-24T00:19:52;3.67;;;1.57;;
35743;SDS011;21867;52.012;4.324;2023-04-24T00:22:19;4.90;;;2.00;;
35743;SDS011;21867;52.012;4.324;2023-04-24T00:24:47;2.53;;;2.30;;
35743;SDS011;21867;52.012;4.324;2023-04-24T00:27:14;4.73;;;1.90;;
35743;SDS011;21867;52.012;4.324;2023-04-24T00:29:43;2.00;;;1.67;;
35743;SDS011;21867;52.012;4.324;2023-04-24T00:55:10;2.57;;;1.40;;
35743;SDS011;21867;52.012;4.324;2023-04-24T00:57:37;1.83;;;1.73;;
35743;SDS011;21867;52.012;4.324;2023-04-24T01:06:07;3.00;;;1.77;;
35743;SDS011;21867;52.012;4.324;2023-04-24T01:08:36;1.63;;;1.50;;
35743;SDS011;21867;52.012;4.324;2023-04-24T01:11:07;2.50;;;1.67;;
35743;SDS011;21867;52.012;4.324;2023-04-24T01:13:34;3.13;;;1.70;;
35743;SDS011;21867;52.012;4.324;2023-04-24T01:16:02;1.60;;;1.50;;
35743;SDS011;21867;52.012;4.324;2023-04-24T01:18:29;2.13;;;1.53;;
35743;SDS011;21867;52.012;4.324;2023-04-24T01:21:12;2.30;;;1.50;;
35743;SDS011;21867;52.012;4.324;2023-04-24T01:23:41;2.70;;;1.40;;
35743;SDS011;21867;52.012;4.324;2023-04-24T01:26:09;2.47;;;1.50;;
35743;SDS011;21867;52.012;4.324;2023-04-24T01:28:36;3.77;;;1.90;;
35743;SDS011;21867;52.012;4.324;2023-04-24T02:08:21;4.17;;;1.90;;
35743;SDS011;21867;52.012;4.324;2023-04-24T02:10:49;2.03;;;1.83;;
35743;SDS011;21867;52.012;4.324;2023-04-24T02:13:16;2.33;;;1.70;;
35743;SDS011;21867;52.012;4.324;2023-04-24T02:15:43;3.17;;;1.83;;
35743;SDS011;21867;52.012;4.324;2023-04-24T02:18:10;2.30;;;1.80;;
35743;SDS011;21867;52.012;4.324;2023-04-24T02:20:43;3.00;;;1.90;;
35743;SDS011;21867;52.012;4.324;2023-04-24T02:23:11;3.83;;;1.70;;
35743;SDS011;21867;52.012;4.324;2023-04-24T02:25:39;1.80;;;1.47;;
35743;SDS011;21867;52.012;4.324;2023-04-24T02:28:06;1.23;;;1.23;;
35743;SDS011;21867;52.012;4.324;2023-04-24T02:33:47;1.93;;;1.63;;
35743;SDS011;21867;52.012;4.324;2023-04-24T02:36:15;2.60;;;1.50;;
35743;SDS011;21867;52.012;4.324;2023-04-24T02:38:42;2.87;;;1.40;;
35743;SDS011;21867;52.012;4.324;2023-04-24T02:41:12;4.30;;;1.97;;
35743;SDS011;21867;52.012;4.324;2023-04-24T02:43:41;3.80;;;1.63;;
35743;SDS011;21867;52.012;4.324;2023-04-24T02:46:08;5.00;;;1.67;;
35743;SDS011;21867;52.012;4.324;2023-04-24T02:48:36;3.17;;;1.90;;
35743;SDS011;21867;52.012;4.324;2023-04-24T02:51:15;3.83;;;1.70;;
35743;SDS011;21867;52.012;4.324;2023-04-24T02:53:43;2.43;;;1.60;;
35743;SDS011;21867;52.012;4.324;2023-04-24T02:56:10;3.93;;;1.60;;
35743;SDS011;21867;52.012;4.324;2023-04-24T02:58:39;4.00;;;2.00;;
35743;SDS011;21867;52.012;4.324;2023-04-24T03:04:42;2.50;;;2.07;;
35743;SDS011;21867;52.012;4.324;2023-04-24T03:07:10;4.27;;;1.93;;
35743;SDS011;21867;52.012;4.324;2023-04-24T03:09:37;2.60;;;1.57;;
35743;SDS011;21867;52.012;4.324;2023-04-24T03:12:04;2.23;;;1.47;;
35743;SDS011;21867;52.012;4.324;2023-04-24T03:14:33;1.63;;;1.53;;
35743;SDS011;21867;52.012;4.324;2023-04-24T03:17:00;1.47;;;1.37;;
35743;SDS011;21867;52.012;4.324;2023-04-24T03:22:14;3.93;;;1.97;;
35743;SDS011;21867;52.012;4.324;2023-04-24T03:24:41;5.40;;;1.87;;
35743;SDS011;21867;52.012;4.324;2023-04-24T03:27:09;5.63;;;2.17;;
35743;SDS011;21867;52.012;4.324;2023-04-24T04:12:59;5.70;;;3.53;;
35743;SDS011;21867;52.012;4.324;2023-04-24T04:15:26;7.13;;;4.30;;
35743;SDS011;21867;52.012;4.324;2023-04-24T04:17:54;9.93;;;4.23;;
35743;SDS011;21867;52.012;4.324;2023-04-24T05:08:42;7.90;;;5.00;;
35743;SDS011;21867;52.012;4.324;2023-04-24T05:11:21;12.80;;;6.67;;
35743;SDS011;21867;52.012;4.324;2023-04-24T05:13:48;16.10;;;6.40;;
35743;SDS011;21867;52.012;4.324;2023-04-24T05:16:22;17.37;;;7.23;;
35743;SDS011;21867;52.012;4.324;2023-04-24T05:18:52;9.90;;;5.70;;
35743;SDS011;21867;52.012;4.324;2023-04-24T05:21:24;15.47;;;6.80;;
35743;SDS011;21867;52.012;4.324;2023-04-24T05:23:59;16.77;;;6.93;;
35743;SDS011;21867;52.012;4.324;2023-04-24T05:26:44;14.20;;;6.87;;
35743;SDS011;21867;52.012;4.324;2023-04-24T05:29:16;14.13;;;6.30;;
35743;SDS011;21867;52.012;4.324;2023-04-24T05:31:43;12.40;;;5.87;;
35743;SDS011;21867;52.012;4.324;2023-04-24T05:39:54;14.57;;;6.50;;
35743;SDS011;21867;52.012;4.324;2023-04-24T05:42:22;15.17;;;6.73;;
35743;SDS011;21867;52.012;4.324;2023-04-24T05:44:49;15.80;;;6.20;;
35743;SDS011;21867;52.012;4.324;2023-04-24T05:47:19;12.60;;;5.97;;
35743;SDS011;21867;52.012;4.324;2023-04-24T05:49:46;13.63;;;6.17;;
35743;SDS011;21867;52.012;4.324;2023-04-24T05:52:13;17.73;;;6.23;;
35743;SDS011;21867;52.012;4.324;2023-04-24T05:54:41;19.83;;;5.93;;
35743;SDS011;21867;52.012;4.324;2023-04-24T05:57:13;15.20;;;5.70;;
35743;SDS011;21867;52.012;4.324;2023-04-24T05:59:52;14.93;;;5.83;;
35743;SDS011;21867;52.012;4.324;2023-04-24T06:02:21;18.47;;;5.13;;
35743;SDS011;21867;52.012;4.324;2023-04-24T06:04:50;19.57;;;5.63;;
35743;SDS011;21867;52.012;4.324;2023-04-24T06:07:17;15.60;;;5.60;;
35743;SDS011;21867;52.012;4.324;2023-04-24T06:09:45;15.30;;;4.83;;
35743;SDS011;21867;52.012;4.324;2023-04-24T06:12:14;9.10;;;4.50;;
35743;SDS011;21867;52.012;4.324;2023-04-24T06:14:58;13.17;;;4.97;;
35743;SDS011;21867;52.012;4.324;2023-04-24T06:17:46;14.03;;;5.13;;
35743;SDS011;21867;52.012;4.324;2023-04-24T06:20:15;11.37;;;3.90;;
35743;SDS011;21867;52.012;4.324;2023-04-24T06:22:43;14.87;;;5.13;;
35743;SDS011;21867;52.012;4.324;2023-04-24T06:25:11;18.07;;;5.43;;
35743;SDS011;21867;52.012;4.324;2023-04-24T06:27:39;16.83;;;5.30;;
35743;SDS011;21867;52.012;4.324;2023-04-24T06:30:07;16.73;;;5.93;;
35743;SDS011;21867;52.012;4.324;2023-04-24T06:32:35;22.13;;;5.70;;
35743;SDS011;21867;52.012;4.324;2023-04-24T06:35:02;16.13;;;4.73;;
35743;SDS011;21867;52.012;4.324;2023-04-24T06:37:30;13.43;;;4.97;;
35743;SDS011;21867;52.012;4.324;2023-04-24T06:39:57;15.47;;;5.17;;
35743;SDS011;21867;52.012;4.324;2023-04-24T06:42:24;13.27;;;5.03;;
35743;SDS011;21867;52.012;4.324;2023-04-24T06:44:53;17.70;;;6.77;;
35743;SDS011;21867;52.012;4.324;2023-04-24T06:47:20;16.17;;;4.73;;
35743;SDS011;21867;52.012;4.324;2023-04-24T06:49:47;18.57;;;4.17;;
35743;SDS011;21867;52.012;4.324;2023-04-24T06:52:15;14.57;;;5.57;;
35743;SDS011;21867;52.012;4.324;2023-04-24T06:54:42;10.40;;;3.70;;
35743;SDS011;21867;52.012;4.324;2023-04-24T06:57:09;11.13;;;4.20;;
35743;SDS011;21867;52.012;4.324;2023-04-24T06:59:37;18.47;;;3.90;;
35743;SDS011;21867;52.012;4.324;2023-04-24T07:02:06;14.47;;;4.30;;
35743;SDS011;21867;52.012;4.324;2023-04-24T07:04:33;11.03;;;4.50;;
35743;SDS011;21867;52.012;4.324;2023-04-24T07:07:02;16.17;;;4.30;;
35743;SDS011;21867;52.012;4.324;2023-04-24T07:09:29;16.03;;;4.07;;
35743;SDS011;21867;52.012;4.324;2023-04-24T07:11:57;16.03;;;4.07;;
35743;SDS011;21867;52.012;4.324;2023-04-24T07:14:24;18.43;;;5.07;;
35743;SDS011;21867;52.012;4.324;2023-04-24T07:16:51;9.60;;;3.13;;
35743;SDS011;21867;52.012;4.324;2023-04-24T07:19:20;12.37;;;3.80;;
35743;SDS011;21867;52.012;4.324;2023-04-24T07:24:43;12.93;;;4.23;;
35743;SDS011;21867;52.012;4.324;2023-04-24T07:27:11;11.80;;;4.77;;
35743;SDS011;21867;52.012;4.324;2023-04-24T07:29:38;10.93;;;3.83;;
35743;SDS011;21867;52.012;4.324;2023-04-24T07:32:06;15.00;;;3.80;;
35743;SDS011;21867;52.012;4.324;2023-04-24T07:34:35;9.10;;;3.47;;
35743;SDS011;21867;52.012;4.324;2023-04-24T08:01:42;10.57;;;3.53;;
35743;SDS011;21867;52.012;4.324;2023-04-24T08:04:09;9.37;;;3.37;;
35743;SDS011;21867;52.012;4.324;2023-04-24T08:06:39;10.30;;;3.10;;
35743;SDS011;21867;52.012;4.324;2023-04-24T08:09:07;11.07;;;3.47;;
35743;SDS011;21867;52.012;4.324;2023-04-24T08:11:40;7.87;;;3.50;;
35743;SDS011;21867;52.012;4.324;2023-04-24T08:25:25;4.10;;;2.60;;
35743;SDS011;21867;52.012;4.324;2023-04-24T08:27:53;7.23;;;2.80;;
35743;SDS011;21867;52.012;4.324;2023-04-24T08:30:21;6.37;;;2.40;;
35743;SDS011;21867;52.012;4.324;2023-04-24T08:32:49;5.33;;;2.27;;
35743;SDS011;21867;52.012;4.324;2023-04-24T08:35:16;10.17;;;4.23;;
35743;SDS011;21867;52.012;4.324;2023-04-24T08:37:47;5.93;;;2.73;;
35743;SDS011;21867;52.012;4.324;2023-04-24T08:40:15;6.97;;;2.33;;
35743;SDS011;21867;52.012;4.324;2023-04-24T08:51:19;5.40;;;1.97;;
35743;SDS011;21867;52.012;4.324;2023-04-24T08:53:46;4.67;;;2.30;;
35743;SDS011;21867;52.012;4.324;2023-04-24T08:56:14;4.40;;;2.20;;
35743;SDS011;21867;52.012;4.324;2023-04-24T08:58:41;9.50;;;2.87;;
35743;SDS011;21867;52.012;4.324;2023-04-24T09:03:51;2.90;;;2.00;;
35743;SDS011;21867;52.012;4.324;2023-04-24T09:06:21;7.80;;;2.70;;
35743;SDS011;21867;52.012;4.324;2023-04-24T09:08:50;7.63;;;2.67;;
35743;SDS011;21867;52.012;4.324;2023-04-24T09:11:18;5.80;;;2.03;;
35743;SDS011;21867;52.012;4.324;2023-04-24T09:13:45;3.70;;;2.03;;
35743;SDS011;21867;52.012;4.324;2023-04-24T09:23:27;5.93;;;2.00;;
35743;SDS011;21867;52.012;4.324;2023-04-24T09:25:55;6.07;;;2.50;;
35743;SDS011;21867;52.012;4.324;2023-04-24T09:28:26;10.63;;;3.10;;
35743;SDS011;21867;52.012;4.324;2023-04-24T09:31:07;5.70;;;2.30;;
35743;SDS011;21867;52.012;4.324;2023-04-24T09:33:34;4.33;;;2.03;;
35743;SDS011;21867;52.012;4.324;2023-04-24T09:38:50;4.10;;;2.20;;
35743;SDS011;21867;52.012;4.324;2023-04-24T09:41:20;3.73;;;1.87;;
35743;SDS011;21867;52.012;4.324;2023-04-24T09:43:48;5.70;;;2.60;;
35743;SDS011;21867;52.012;4.324;2023-04-24T09:53:02;7.10;;;2.07;;
35743;SDS011;21867;52.012;4.324;2023-04-24T09:55:32;3.90;;;1.83;;
35743;SDS011;21867;52.012;4.324;2023-04-24T09:58:00;7.30;;;2.20;;
35743;SDS011;21867;52.012;4.324;2023-04-24T10:00:29;7.63;;;2.37;;
35743;SDS011;21867;52.012;4.324;2023-04-24T10:02:57;3.77;;;2.27;;
35743;SDS011;21867;52.012;4.324;2023-04-24T10:08:13;7.17;;;2.83;;
35743;SDS011;21867;52.012;4.324;2023-04-24T10:10:42;7.90;;;2.70;;
35743;SDS011;21867;52.012;4.324;2023-04-24T10:13:10;3.83;;;2.20;;
35743;SDS011;21867;52.012;4.324;2023-04-24T11:51:05;4.43;;;2.50;;
35743;SDS011;21867;52.012;4.324;2023-04-24T11:53:33;7.47;;;3.00;;
35743;SDS011;21867;52.012;4.324;2023-04-24T11:56:02;9.10;;;2.90;;
35743;SDS011;21867;52.012;4.324;2023-04-24T11:58:34;7.60;;;3.20;;
35743;SDS011;21867;52.012;4.324;2023-04-24T12:01:02;10.63;;;2.83;;
35743;SDS011;21867;52.012;4.324;2023-04-24T14:04:26;9.27;;;4.27;;
35743;SDS011;21867;52.012;4.324;2023-04-24T14:06:54;11.73;;;4.10;;
35743;SDS011;21867;52.012;4.324;2023-04-24T14:09:21;12.43;;;3.73;;
35743;SDS011;21867;52.012;4.324;2023-04-24T14:11:48;12.77;;;3.90;;
35743;SDS011;21867;52.012;4.324;2023-04-24T14:14:16;10.37;;;4.20;;
35743;SDS011;21867;52.012;4.324;2023-04-24T14:16:52;10.10;;;3.33;;
35743;SDS011;21867;52.012;4.324;2023-04-24T14:22:12;9.73;;;4.23;;
35743;SDS011;21867;52.012;4.324;2023-04-24T14:24:39;16.13;;;5.20;;
35743;SDS011;21867;52.012;4.324;2023-04-24T14:27:07;15.03;;;3.47;;
35743;SDS011;21867;52.012;4.324;2023-04-24T14:29:34;13.57;;;4.57;;
35743;SDS011;21867;52.012;4.324;2023-04-24T14:32:01;10.40;;;3.30;;
35743;SDS011;21867;52.012;4.324;2023-04-24T14:34:29;12.27;;;4.23;;
35743;SDS011;21867;52.012;4.324;2023-04-24T14:36:57;10.67;;;3.70;;
35743;SDS011;21867;52.012;4.324;2023-04-24T14:39:28;6.97;;;3.47;;
35743;SDS011;21867;52.012;4.324;2023-04-24T14:41:55;12.67;;;4.17;;
35743;SDS011;21867;52.012;4.324;2023-04-24T14:44:22;12.30;;;4.33;;
35743;SDS011;21867;52.012;4.324;2023-04-24T14:46:57;13.93;;;4.53;;
35743;SDS011;21867;52.012;4.324;2023-04-24T14:49:37;8.27;;;3.53;;
35743;SDS011;21867;52.012;4.324;2023-04-24T14:52:04;9.97;;;3.47;;
35743;SDS011;21867;52.012;4.324;2023-04-24T14:54:33;8.53;;;2.83;;
35743;SDS011;21867;52.012;4.324;2023-04-24T14:57:01;7.90;;;3.23;;
35743;SDS011;21867;52.012;4.324;2023-04-24T14:59:28;10.73;;;3.70;;
35743;SDS011;21867;52.012;4.324;2023-04-24T15:01:55;12.00;;;4.50;;
35743;SDS011;21867;52.012;4.324;2023-04-24T15:04:41;15.03;;;4.53;;
35743;SDS011;21867;52.012;4.324;2023-04-24T15:07:36;11.90;;;4.07;;
35743;SDS011;21867;52.012;4.324;2023-04-24T15:10:07;10.07;;;3.40;;
35743;SDS011;21867;52.012;4.324;2023-04-24T15:12:34;18.40;;;4.80;;
35743;SDS011;21867;52.012;4.324;2023-04-24T15:15:02;18.00;;;5.37;;
35743;SDS011;21867;52.012;4.324;2023-04-24T15:17:29;11.70;;;4.53;;
35743;SDS011;21867;52.012;4.324;2023-04-24T17:19:38;10.67;;;3.87;;
35743;SDS011;21867;52.012;4.324;2023-04-24T17:22:05;14.20;;;4.20;;
35743;SDS011;21867;52.012;4.324;2023-04-24T17:24:32;14.70;;;4.17;;
35743;SDS011;21867;52.012;4.324;2023-04-24T17:27:00;14.50;;;3.63;;
35743;SDS011;21867;52.012;4.324;2023-04-24T17:29:40;12.73;;;3.90;;
35743;SDS011;21867;52.012;4.324;2023-04-24T17:32:07;11.67;;;4.43;;
35743;SDS011;21867;52.012;4.324;2023-04-24T17:34:34;19.63;;;4.63;;
35743;SDS011;21867;52.012;4.324;2023-04-24T17:37:03;11.37;;;3.93;;
35743;SDS011;21867;52.012;4.324;2023-04-24T17:39:30;10.00;;;3.70;;
35743;SDS011;21867;52.012;4.324;2023-04-24T17:41:57;7.53;;;2.93;;
35743;SDS011;21867;52.012;4.324;2023-04-24T17:44:25;16.43;;;4.53;;
35743;SDS011;21867;52.012;4.324;2023-04-24T17:46:52;12.10;;;3.33;;
35743;SDS011;21867;52.012;4.324;2023-04-24T17:49:20;10.93;;;4.37;;
35743;SDS011;21867;52.012;4.324;2023-04-24T17:51:47;18.00;;;4.10;;
35743;SDS011;21867;52.012;4.324;2023-04-24T17:54:16;9.07;;;3.70;;
35743;SDS011;21867;52.012;4.324;2023-04-24T17:56:43;17.00;;;4.20;;
35743;SDS011;21867;52.012;4.324;2023-04-24T17:59:11;13.37;;;3.67;;
35743;SDS011;21867;52.012;4.324;2023-04-24T18:01:38;8.93;;;3.20;;
35743;SDS011;21867;52.012;4.324;2023-04-24T18:04:05;7.73;;;3.23;;
35743;SDS011;21867;52.012;4.324;2023-04-24T18:06:33;10.63;;;4.13;;
35743;SDS011;21867;52.012;4.324;2023-04-24T18:09:00;12.73;;;3.80;;
35743;SDS011;21867;52.012;4.324;2023-04-24T18:11:29;12.33;;;4.63;;
35743;SDS011;21867;52.012;4.324;2023-04-24T18:13:56;9.97;;;3.93;;
35743;SDS011;21867;52.012;4.324;2023-04-24T18:16:23;9.83;;;4.00;;
35743;SDS011;21867;52.012;4.324;2023-04-24T18:18:51;6.70;;;2.83;;
35743;SDS011;21867;52.012;4.324;2023-04-24T18:21:18;12.60;;;3.20;;
35743;SDS011;21867;52.012;4.324;2023-04-24T18:23:45;12.23;;;3.33;;
35743;SDS011;21867;52.012;4.324;2023-04-24T18:26:13;9.67;;;3.37;;
35743;SDS011;21867;52.012;4.324;2023-04-24T18:28:41;7.80;;;2.87;;
35743;SDS011;21867;52.012;4.324;2023-04-24T18:31:08;10.17;;;3.80;;
35743;SDS011;21867;52.012;4.324;2023-04-24T18:33:36;8.97;;;3.03;;
35743;SDS011;21867;52.012;4.324;2023-04-24T18:36:03;9.60;;;3.13;;
35743;SDS011;21867;52.012;4.324;2023-04-24T18:38:30;6.87;;;2.83;;
35743;SDS011;21867;52.012;4.324;2023-04-24T18:40:58;10.10;;;3.43;;
35743;SDS011;21867;52.012;4.324;2023-04-24T18:43:25;6.63;;;3.20;;
35743;SDS011;21867;52.012;4.324;2023-04-24T18:45:54;10.23;;;2.90;;
35743;SDS011;21867;52.012;4.324;2023-04-24T18:48:21;11.07;;;3.00;;
35743;SDS011;21867;52.012;4.324;2023-04-24T18:50:48;7.90;;;2.97;;
35743;SDS011;21867;52.012;4.324;2023-04-24T18:53:16;7.47;;;2.50;;
35743;SDS011;21867;52.012;4.324;2023-04-24T18:55:43;9.93;;;3.17;;
35743;SDS011;21867;52.012;4.324;2023-04-24T18:58:11;6.27;;;2.87;;
35743;SDS011;21867;52.012;4.324;2023-04-24T19:00:38;3.63;;;2.47;;
35743;SDS011;21867;52.012;4.324;2023-04-24T19:03:07;5.77;;;2.50;;
35743;SDS011;21867;52.012;4.324;2023-04-24T19:05:35;10.37;;;3.17;;
35743;SDS011;21867;52.012;4.324;2023-04-24T19:08:02;7.97;;;3.30;;
35743;SDS011;21867;52.012;4.324;2023-04-24T19:10:29;8.43;;;3.07;;
35743;SDS011;21867;52.012;4.324;2023-04-24T19:12:56;10.53;;;2.73;;
35743;SDS011;21867;52.012;4.324;2023-04-24T19:15:24;9.90;;;3.30;;
35743;SDS011;21867;52.012;4.324;2023-04-24T19:17:51;6.27;;;2.83;;
35743;SDS011;21867;52.012;4.324;2023-04-24T19:20:20;12.27;;;2.90;;
35743;SDS011;21867;52.012;4.324;2023-04-24T19:22:47;7.13;;;3.27;;
35743;SDS011;21867;52.012;4.324;2023-04-24T19:25:14;7.17;;;3.33;;
35743;SDS011;21867;52.012;4.324;2023-04-24T19:27:42;8.10;;;3.60;;
35743;SDS011;21867;52.012;4.324;2023-04-24T19:30:09;9.60;;;3.17;;
35743;SDS011;21867;52.012;4.324;2023-04-24T19:32:37;9.27;;;3.37;;
35743;SDS011;21867;52.012;4.324;2023-04-24T19:35:04;6.07;;;2.83;;
35743;SDS011;21867;52.012;4.324;2023-04-24T19:37:33;7.43;;;3.57;;
35743;SDS011;21867;52.012;4.324;2023-04-24T19:40:00;11.13;;;3.80;;
35743;SDS011;21867;52.012;4.324;2023-04-24T19:42:28;9.53;;;3.60;;
35743;SDS011;21867;52.012;4.324;2023-04-24T19:45:09;8.23;;;3.40;;
35743;SDS011;21867;52.012;4.324;2023-04-24T19:47:37;11.50;;;4.67;;
35743;SDS011;21867;52.012;4.324;2023-04-24T19:50:05;9.10;;;2.97;;
35743;SDS011;21867;52.012;4.324;2023-04-24T19:52:34;7.83;;;2.67;;
35743;SDS011;21867;52.012;4.324;2023-04-24T19:55:01;8.97;;;3.20;;
35743;SDS011;21867;52.012;4.324;2023-04-24T19:57:28;7.30;;;2.80;;
35743;SDS011;21867;52.012;4.324;2023-04-24T19:59:56;6.60;;;3.37;;
35743;SDS011;21867;52.012;4.324;2023-04-24T20:02:23;10.67;;;3.50;;
35743;SDS011;21867;52.012;4.324;2023-04-24T20:04:51;7.97;;;3.23;;
35743;SDS011;21867;52.012;4.324;2023-04-24T20:07:18;5.93;;;3.07;;
35743;SDS011;21867;52.012;4.324;2023-04-24T20:09:47;9.27;;;3.43;;
35743;SDS011;21867;52.012;4.324;2023-04-24T20:12:14;8.87;;;3.47;;
35743;SDS011;21867;52.012;4.324;2023-04-24T20:14:42;11.57;;;3.40;;
35743;SDS011;21867;52.012;4.324;2023-04-24T20:17:09;5.97;;;2.77;;
35743;SDS011;21867;52.012;4.324;2023-04-24T20:19:37;7.73;;;3.63;;
35743;SDS011;21867;52.012;4.324;2023-04-24T20:22:05;10.13;;;3.37;;
35743;SDS011;21867;52.012;4.324;2023-04-24T20:24:32;8.20;;;2.80;;
35743;SDS011;21867;52.012;4.324;2023-04-24T20:27:01;6.90;;;2.63;;
35743;SDS011;21867;52.012;4.324;2023-04-24T20:29:28;8.27;;;2.93;;
35743;SDS011;21867;52.012;4.324;2023-04-24T20:31:56;9.57;;;3.23;;
35743;SDS011;21867;52.012;4.324;2023-04-24T20:34:23;7.00;;;2.67;;
35743;SDS011;21867;52.012;4.324;2023-04-24T20:36:51;7.63;;;2.63;;
35743;SDS011;21867;52.012;4.324;2023-04-24T20:39:18;11.37;;;3.10;;
35743;SDS011;21867;52.012;4.324;2023-04-24T20:41:45;11.13;;;3.77;;
35743;SDS011;21867;52.012;4.324;2023-04-24T20:44:14;10.57;;;3.03;;
35743;SDS011;21867;52.012;4.324;2023-04-24T20:46:41;14.80;;;3.63;;
35743;SDS011;21867;52.012;4.324;2023-04-24T20:49:09;12.33;;;3.30;;
35743;SDS011;21867;52.012;4.324;2023-04-24T20:51:36;9.20;;;3.70;;
35743;SDS011;21867;52.012;4.324;2023-04-24T20:54:03;8.20;;;2.90;;
35743;SDS011;21867;52.012;4.324;2023-04-24T20:56:30;12.60;;;4.63;;
35743;SDS011;21867;52.012;4.324;2023-04-24T20:58:58;10.63;;;3.77;;
35743;SDS011;21867;52.012;4.324;2023-04-24T21:01:27;11.03;;;4.30;;
35743;SDS011;21867;52.012;4.324;2023-04-24T21:03:55;11.43;;;3.70;;
35743;SDS011;21867;52.012;4.324;2023-04-24T21:06:22;7.57;;;3.00;;
35743;SDS011;21867;52.012;4.324;2023-04-24T21:08:49;9.90;;;3.40;;
35743;SDS011;21867;52.012;4.324;2023-04-24T21:11:17;10.27;;;3.50;;
35743;SDS011;21867;52.012;4.324;2023-04-24T21:13:44;8.13;;;3.00;;
35743;SDS011;21867;52.012;4.324;2023-04-24T21:16:12;7.17;;;3.20;;
35743;SDS011;21867;52.012;4.324;2023-04-24T21:18:40;9.73;;;3.53;;
35743;SDS011;21867;52.012;4.324;2023-04-24T21:21:08;10.10;;;4.07;;
35743;SDS011;21867;52.012;4.324;2023-04-24T21:23:35;9.10;;;3.37;;
35743;SDS011;21867;52.012;4.324;2023-04-24T21:26:02;11.60;;;4.87;;
35743;SDS011;21867;52.012;4.324;2023-04-24T21:28:30;6.67;;;4.00;;
35743;SDS011;21867;52.012;4.324;2023-04-24T21:30:57;11.17;;;3.37;;
35743;SDS011;21867;52.012;4.324;2023-04-24T21:33:24;12.43;;;3.90;;
35743;SDS011;21867;52.012;4.324;2023-04-24T21:35:53;14.10;;;3.63;;
35743;SDS011;21867;52.012;4.324;2023-04-24T21:38:20;21.33;;;4.87;;
35743;SDS011;21867;52.012;4.324;2023-04-24T21:40:47;6.93;;;4.03;;
35743;SDS011;21867;52.012;4.324;2023-04-24T21:43:15;8.73;;;3.27;;
35743;SDS011;21867;52.012;4.324;2023-04-24T21:45:42;13.87;;;3.97;;
35743;SDS011;21867;52.012;4.324;2023-04-24T21:48:09;10.73;;;3.63;;
35743;SDS011;21867;52.012;4.324;2023-04-24T21:50:37;15.13;;;4.07;;
35743;SDS011;21867;52.012;4.324;2023-04-24T21:53:05;9.20;;;3.13;;
35743;SDS011;21867;52.012;4.324;2023-04-24T21:55:32;9.67;;;3.17;;
35743;SDS011;21867;52.012;4.324;2023-04-24T21:58:00;13.90;;;5.17;;
35743;SDS011;21867;52.012;4.324;2023-04-24T22:00:27;15.70;;;4.00;;
35743;SDS011;21867;52.012;4.324;2023-04-24T22:02:54;12.33;;;3.90;;
35743;SDS011;21867;52.012;4.324;2023-04-24T22:05:22;12.70;;;4.33;;
35743;SDS011;21867;52.012;4.324;2023-04-24T22:07:49;13.83;;;3.57;;
35743;SDS011;21867;52.012;4.324;2023-04-24T22:10:18;16.93;;;4.30;;
35743;SDS011;21867;52.012;4.324;2023-04-24T22:12:46;15.43;;;4.60;;
35743;SDS011;21867;52.012;4.324;2023-04-24T22:15:13;10.43;;;4.80;;
35743;SDS011;21867;52.012;4.324;2023-04-24T22:17:40;16.90;;;4.27;;
35743;SDS011;21867;52.012;4.324;2023-04-24T22:20:08;20.27;;;5.10;;
35743;SDS011;21867;52.012;4.324;2023-04-24T22:22:35;15.33;;;4.07;;
35743;SDS011;21867;52.012;4.324;2023-04-24T22:25:03;11.43;;;4.60;;
35743;SDS011;21867;52.012;4.324;2023-04-24T22:27:32;24.60;;;5.83;;
35743;SDS011;21867;52.012;4.324;2023-04-24T22:30:01;15.93;;;5.07;;
35743;SDS011;21867;52.012;4.324;2023-04-24T22:32:28;18.07;;;4.13;;
35743;SDS011;21867;52.012;4.324;2023-04-24T22:34:56;11.63;;;4.40;;
35743;SDS011;21867;52.012;4.324;2023-04-24T22:37:23;17.00;;;4.87;;
35743;SDS011;21867;52.012;4.324;2023-04-24T22:39:50;15.80;;;4.67;;
35743;SDS011;21867;52.012;4.324;2023-04-24T22:42:17;20.50;;;4.67;;
35743;SDS011;21867;52.012;4.324;2023-04-24T22:44:46;18.57;;;4.33;;
35743;SDS011;21867;52.012;4.324;2023-04-24T22:47:13;15.03;;;4.93;;
35743;SDS011;21867;52.012;4.324;2023-04-24T22:49:41;15.90;;;4.20;;
35743;SDS011;21867;52.012;4.324;2023-04-24T22:52:08;16.17;;;4.97;;
35743;SDS011;21867;52.012;4.324;2023-04-24T22:54:35;13.07;;;3.87;;
35743;SDS011;21867;52.012;4.324;2023-04-24T22:57:02;14.90;;;4.63;;
35743;SDS011;21867;52.012;4.324;2023-04-24T22:59:30;14.30;;;4.43;;
35743;SDS011;21867;52.012;4.324;2023-04-24T23:01:58;14.20;;;4.17;;
35743;SDS011;21867;52.012;4.324;2023-04-24T23:04:26;17.00;;;4.43;;
35743;SDS011;21867;52.012;4.324;2023-04-24T23:06:53;11.40;;;3.93;;
35743;SDS011;21867;52.012;4.324;2023-04-24T23:09:20;14.87;;;4.30;;
35743;SDS011;21867;52.012;4.324;2023-04-24T23:11:48;14.33;;;4.70;;
35743;SDS011;21867;52.012;4.324;2023-04-24T23:14:15;14.83;;;3.70;;
35743;SDS011;21867;52.012;4.324;2023-04-24T23:16:42;14.10;;;4.87;;
35743;SDS011;21867;52.012;4.324;2023-04-24T23:19:11;15.53;;;5.70;;
35743;SDS011;21867;52.012;4.324;2023-04-24T23:21:38;18.23;;;5.23;;
35743;SDS011;21867;52.012;4.324;2023-04-24T23:35:44;9.63;;;3.67;;
35743;SDS011;21867;52.012;4.324;2023-04-24T23:38:11;12.50;;;4.40;;
35743;SDS011;21867;52.012;4.324;2023-04-24T23:40:40;10.97;;;4.40;;
35743;SDS011;21867;52.012;4.324;2023-04-24T23:43:17;13.50;;;4.23;;
35743;SDS011;21867;52.012;4.324;2023-04-24T23:45:44;13.20;;;3.73;;
35743;SDS011;21867;52.012;4.324;2023-04-24T23:48:11;12.40;;;4.27;;
35743;SDS011;21867;52.012;4.324;2023-04-24T23:50:39;9.67;;;3.90;;
35743;SDS011;21867;52.012;4.324;2023-04-24T23:53:07;14.40;;;3.67;;
35743;SDS011;21867;52.012;4.324;2023-04-24T23:55:35;9.50;;;3.23;;
35743;SDS011;21867;52.012;4.324;2023-04-24T23:58:02;9.90;;;4.17;;
